sensor_id;sensor_type;location;lat;lon;timestamp;P1;durP1;ratioP1;P2;durP2;ratioP2
48925;SDS011;39838;59.938;30.642;2024-01-30T00:01:10;16.85;;;6.85;;
48925;SDS011;39838;59.938;30.642;2024-01-30T00:03:38;15.73;;;6.18;;
48925;SDS011;39838;59.938;30.642;2024-01-30T00:06:06;15.77;;;6.30;;
48925;SDS011;39838;59.938;30.642;2024-01-30T00:08:35;20.67;;;6.88;;
48925;SDS011;39838;59.938;30.642;2024-01-30T00:11:03;22.80;;;8.20;;
48925;SDS011;39838;59.938;30.642;2024-01-30T00:13:30;14.23;;;6.70;;
48925;SDS011;39838;59.938;30.642;2024-01-30T00:15:58;16.73;;;6.50;;
48925;SDS011;39838;59.938;30.642;2024-01-30T00:18:26;13.23;;;5.80;;
48925;SDS011;39838;59.938;30.642;2024-01-30T00:20:53;16.27;;;6.20;;
48925;SDS011;39838;59.938;30.642;2024-01-30T00:23:20;16.48;;;6.63;;
48925;SDS011;39838;59.938;30.642;2024-01-30T00:25:49;18.65;;;7.45;;
48925;SDS011;39838;59.938;30.642;2024-01-30T00:28:17;14.45;;;6.43;;
48925;SDS011;39838;59.938;30.642;2024-01-30T00:30:44;13.10;;;6.55;;
48925;SDS011;39838;59.938;30.642;2024-01-30T00:33:11;15.68;;;7.03;;
48925;SDS011;39838;59.938;30.642;2024-01-30T00:35:39;19.98;;;8.07;;
48925;SDS011;39838;59.938;30.642;2024-01-30T00:38:06;16.05;;;7.53;;
48925;SDS011;39838;59.938;30.642;2024-01-30T00:40:33;21.15;;;7.70;;
48925;SDS011;39838;59.938;30.642;2024-01-30T00:43:02;18.70;;;7.63;;
48925;SDS011;39838;59.938;30.642;2024-01-30T00:45:29;16.42;;;7.00;;
48925;SDS011;39838;59.938;30.642;2024-01-30T00:47:57;18.80;;;7.40;;
48925;SDS011;39838;59.938;30.642;2024-01-30T00:50:24;18.13;;;7.53;;
48925;SDS011;39838;59.938;30.642;2024-01-30T00:52:51;14.30;;;6.82;;
48925;SDS011;39838;59.938;30.642;2024-01-30T00:55:18;17.40;;;7.45;;
48925;SDS011;39838;59.938;30.642;2024-01-30T00:57:46;19.15;;;7.30;;
48925;SDS011;39838;59.938;30.642;2024-01-30T01:00:15;18.48;;;7.43;;
48925;SDS011;39838;59.938;30.642;2024-01-30T01:02:42;17.90;;;7.90;;
48925;SDS011;39838;59.938;30.642;2024-01-30T01:05:10;18.88;;;7.57;;
48925;SDS011;39838;59.938;30.642;2024-01-30T01:07:37;15.02;;;7.20;;
48925;SDS011;39838;59.938;30.642;2024-01-30T01:10:06;17.95;;;7.00;;
48925;SDS011;39838;59.938;30.642;2024-01-30T01:12:33;18.35;;;7.35;;
48925;SDS011;39838;59.938;30.642;2024-01-30T01:15:01;16.80;;;6.60;;
48925;SDS011;39838;59.938;30.642;2024-01-30T01:17:31;16.08;;;7.05;;
48925;SDS011;39838;59.938;30.642;2024-01-30T01:19:58;20.08;;;7.15;;
48925;SDS011;39838;59.938;30.642;2024-01-30T01:22:26;15.82;;;6.50;;
48925;SDS011;39838;59.938;30.642;2024-01-30T01:24:54;15.23;;;6.70;;
48925;SDS011;39838;59.938;30.642;2024-01-30T01:27:21;18.30;;;7.13;;
48925;SDS011;39838;59.938;30.642;2024-01-30T01:29:48;15.35;;;6.80;;
48925;SDS011;39838;59.938;30.642;2024-01-30T01:32:15;20.65;;;7.00;;
48925;SDS011;39838;59.938;30.642;2024-01-30T01:34:44;15.27;;;6.95;;
48925;SDS011;39838;59.938;30.642;2024-01-30T01:37:11;21.33;;;6.72;;
48925;SDS011;39838;59.938;30.642;2024-01-30T01:39:39;18.30;;;6.85;;
48925;SDS011;39838;59.938;30.642;2024-01-30T01:42:06;17.23;;;7.05;;
48925;SDS011;39838;59.938;30.642;2024-01-30T01:44:33;21.15;;;7.78;;
48925;SDS011;39838;59.938;30.642;2024-01-30T01:47:01;19.00;;;7.68;;
48925;SDS011;39838;59.938;30.642;2024-01-30T01:49:28;17.13;;;7.85;;
48925;SDS011;39838;59.938;30.642;2024-01-30T01:51:57;20.95;;;7.90;;
48925;SDS011;39838;59.938;30.642;2024-01-30T01:54:25;19.70;;;8.10;;
48925;SDS011;39838;59.938;30.642;2024-01-30T01:56:55;19.85;;;7.43;;
48925;SDS011;39838;59.938;30.642;2024-01-30T01:59:23;18.30;;;7.50;;
48925;SDS011;39838;59.938;30.642;2024-01-30T02:01:51;15.18;;;6.68;;
48925;SDS011;39838;59.938;30.642;2024-01-30T02:04:20;20.58;;;7.80;;
48925;SDS011;39838;59.938;30.642;2024-01-30T02:06:47;19.85;;;7.28;;
48925;SDS011;39838;59.938;30.642;2024-01-30T02:09:16;16.30;;;7.97;;
48925;SDS011;39838;59.938;30.642;2024-01-30T02:11:44;17.38;;;8.02;;
48925;SDS011;39838;59.938;30.642;2024-01-30T02:14:11;22.67;;;7.60;;
48925;SDS011;39838;59.938;30.642;2024-01-30T02:16:39;13.75;;;6.78;;
48925;SDS011;39838;59.938;30.642;2024-01-30T02:19:07;17.17;;;7.22;;
48925;SDS011;39838;59.938;30.642;2024-01-30T02:21:38;14.32;;;6.90;;
48925;SDS011;39838;59.938;30.642;2024-01-30T02:24:06;18.35;;;7.30;;
48925;SDS011;39838;59.938;30.642;2024-01-30T02:26:33;19.50;;;7.65;;
48925;SDS011;39838;59.938;30.642;2024-01-30T02:29:00;17.00;;;6.75;;
48925;SDS011;39838;59.938;30.642;2024-01-30T02:31:28;18.50;;;6.95;;
48925;SDS011;39838;59.938;30.642;2024-01-30T02:33:55;20.10;;;7.30;;
48925;SDS011;39838;59.938;30.642;2024-01-30T02:36:22;17.40;;;7.18;;
48925;SDS011;39838;59.938;30.642;2024-01-30T02:38:51;15.40;;;7.43;;
48925;SDS011;39838;59.938;30.642;2024-01-30T02:41:18;20.80;;;8.27;;
48925;SDS011;39838;59.938;30.642;2024-01-30T02:43:45;13.63;;;6.57;;
48925;SDS011;39838;59.938;30.642;2024-01-30T02:46:13;18.73;;;7.80;;
48925;SDS011;39838;59.938;30.642;2024-01-30T02:48:40;19.67;;;7.70;;
48925;SDS011;39838;59.938;30.642;2024-01-30T02:51:07;20.48;;;7.75;;
48925;SDS011;39838;59.938;30.642;2024-01-30T02:53:34;19.00;;;7.10;;
48925;SDS011;39838;59.938;30.642;2024-01-30T02:56:04;19.92;;;7.60;;
48925;SDS011;39838;59.938;30.642;2024-01-30T02:58:35;19.02;;;7.80;;
48925;SDS011;39838;59.938;30.642;2024-01-30T03:01:02;20.25;;;8.07;;
48925;SDS011;39838;59.938;30.642;2024-01-30T03:03:30;19.27;;;7.93;;
48925;SDS011;39838;59.938;30.642;2024-01-30T03:05:57;18.40;;;7.80;;
48925;SDS011;39838;59.938;30.642;2024-01-30T03:08:24;19.95;;;7.15;;
48925;SDS011;39838;59.938;30.642;2024-01-30T03:10:51;22.42;;;7.93;;
48925;SDS011;39838;59.938;30.642;2024-01-30T03:13:21;20.95;;;7.20;;
48925;SDS011;39838;59.938;30.642;2024-01-30T03:15:49;18.45;;;7.22;;
48925;SDS011;39838;59.938;30.642;2024-01-30T03:18:16;19.80;;;7.90;;
48925;SDS011;39838;59.938;30.642;2024-01-30T03:20:44;19.08;;;6.97;;
48925;SDS011;39838;59.938;30.642;2024-01-30T03:23:11;18.42;;;8.75;;
48925;SDS011;39838;59.938;30.642;2024-01-30T03:25:38;23.75;;;7.43;;
48925;SDS011;39838;59.938;30.642;2024-01-30T03:28:06;21.92;;;7.80;;
48925;SDS011;39838;59.938;30.642;2024-01-30T03:30:35;17.00;;;7.63;;
48925;SDS011;39838;59.938;30.642;2024-01-30T03:33:03;24.35;;;8.18;;
48925;SDS011;39838;59.938;30.642;2024-01-30T03:35:30;20.33;;;7.60;;
48925;SDS011;39838;59.938;30.642;2024-01-30T03:37:57;17.20;;;7.20;;
48925;SDS011;39838;59.938;30.642;2024-01-30T03:40:25;20.30;;;7.35;;
48925;SDS011;39838;59.938;30.642;2024-01-30T03:42:52;21.55;;;7.72;;
48925;SDS011;39838;59.938;30.642;2024-01-30T03:45:19;18.10;;;7.32;;
48925;SDS011;39838;59.938;30.642;2024-01-30T03:47:48;19.83;;;8.27;;
48925;SDS011;39838;59.938;30.642;2024-01-30T03:50:15;19.63;;;8.25;;
48925;SDS011;39838;59.938;30.642;2024-01-30T03:52:42;22.00;;;8.80;;
48925;SDS011;39838;59.938;30.642;2024-01-30T03:55:10;19.70;;;8.23;;
48925;SDS011;39838;59.938;30.642;2024-01-30T03:57:37;19.65;;;7.78;;
48925;SDS011;39838;59.938;30.642;2024-01-30T04:00:05;22.95;;;7.75;;
48925;SDS011;39838;59.938;30.642;2024-01-30T04:02:33;21.10;;;8.15;;
48925;SDS011;39838;59.938;30.642;2024-01-30T04:05:02;19.60;;;7.45;;
48925;SDS011;39838;59.938;30.642;2024-01-30T04:07:30;13.88;;;6.95;;
48925;SDS011;39838;59.938;30.642;2024-01-30T04:09:57;16.90;;;7.30;;
48925;SDS011;39838;59.938;30.642;2024-01-30T04:12:24;19.88;;;7.70;;
48925;SDS011;39838;59.938;30.642;2024-01-30T04:14:51;18.67;;;8.40;;
48925;SDS011;39838;59.938;30.642;2024-01-30T04:17:19;16.75;;;7.93;;
48925;SDS011;39838;59.938;30.642;2024-01-30T04:19:47;19.30;;;7.90;;
48925;SDS011;39838;59.938;30.642;2024-01-30T04:22:15;21.70;;;7.95;;
48925;SDS011;39838;59.938;30.642;2024-01-30T04:24:43;25.48;;;8.00;;
48925;SDS011;39838;59.938;30.642;2024-01-30T04:27:10;22.45;;;8.13;;
48925;SDS011;39838;59.938;30.642;2024-01-30T04:29:37;17.50;;;7.82;;
48925;SDS011;39838;59.938;30.642;2024-01-30T04:32:05;19.00;;;8.18;;
48925;SDS011;39838;59.938;30.642;2024-01-30T04:34:32;23.10;;;8.93;;
48925;SDS011;39838;59.938;30.642;2024-01-30T04:36:59;15.55;;;8.20;;
48925;SDS011;39838;59.938;30.642;2024-01-30T04:39:28;19.02;;;8.02;;
48925;SDS011;39838;59.938;30.642;2024-01-30T04:41:55;19.45;;;8.38;;
48925;SDS011;39838;59.938;30.642;2024-01-30T04:44:23;21.42;;;8.20;;
48925;SDS011;39838;59.938;30.642;2024-01-30T04:46:50;17.30;;;8.88;;
48925;SDS011;39838;59.938;30.642;2024-01-30T04:49:17;20.75;;;8.25;;
48925;SDS011;39838;59.938;30.642;2024-01-30T04:51:45;19.35;;;9.00;;
48925;SDS011;39838;59.938;30.642;2024-01-30T04:54:12;17.67;;;8.93;;
48925;SDS011;39838;59.938;30.642;2024-01-30T04:56:40;22.50;;;10.05;;
48925;SDS011;39838;59.938;30.642;2024-01-30T04:59:08;26.65;;;10.40;;
48925;SDS011;39838;59.938;30.642;2024-01-30T05:01:35;17.98;;;8.95;;
48925;SDS011;39838;59.938;30.642;2024-01-30T05:04:02;24.20;;;9.43;;
48925;SDS011;39838;59.938;30.642;2024-01-30T05:06:30;20.02;;;9.48;;
48925;SDS011;39838;59.938;30.642;2024-01-30T05:08:57;23.70;;;10.20;;
48925;SDS011;39838;59.938;30.642;2024-01-30T05:11:24;24.50;;;9.50;;
48925;SDS011;39838;59.938;30.642;2024-01-30T05:13:53;21.58;;;9.07;;
48925;SDS011;39838;59.938;30.642;2024-01-30T05:16:20;24.15;;;9.77;;
48925;SDS011;39838;59.938;30.642;2024-01-30T05:18:47;19.52;;;9.32;;
48925;SDS011;39838;59.938;30.642;2024-01-30T05:21:15;22.33;;;9.73;;
48925;SDS011;39838;59.938;30.642;2024-01-30T05:23:42;20.17;;;9.68;;
48925;SDS011;39838;59.938;30.642;2024-01-30T05:26:10;18.92;;;8.88;;
48925;SDS011;39838;59.938;30.642;2024-01-30T05:28:37;22.83;;;9.65;;
48925;SDS011;39838;59.938;30.642;2024-01-30T05:31:06;24.60;;;9.43;;
48925;SDS011;39838;59.938;30.642;2024-01-30T05:33:33;21.55;;;9.27;;
48925;SDS011;39838;59.938;30.642;2024-01-30T05:36:00;25.63;;;9.73;;
48925;SDS011;39838;59.938;30.642;2024-01-30T05:38:27;27.65;;;9.82;;
48925;SDS011;39838;59.938;30.642;2024-01-30T05:40:55;21.08;;;10.70;;
48925;SDS011;39838;59.938;30.642;2024-01-30T05:43:24;26.95;;;11.05;;
48925;SDS011;39838;59.938;30.642;2024-01-30T05:45:51;30.58;;;13.07;;
48925;SDS011;39838;59.938;30.642;2024-01-30T05:48:20;36.88;;;14.20;;
48925;SDS011;39838;59.938;30.642;2024-01-30T05:50:47;28.45;;;13.00;;
48925;SDS011;39838;59.938;30.642;2024-01-30T05:53:14;32.58;;;13.13;;
48925;SDS011;39838;59.938;30.642;2024-01-30T05:55:42;29.90;;;12.60;;
48925;SDS011;39838;59.938;30.642;2024-01-30T05:58:09;27.08;;;12.15;;
48925;SDS011;39838;59.938;30.642;2024-01-30T06:00:36;40.70;;;14.07;;
48925;SDS011;39838;59.938;30.642;2024-01-30T06:03:04;34.33;;;13.02;;
48925;SDS011;39838;59.938;30.642;2024-01-30T06:05:33;28.77;;;13.88;;
48925;SDS011;39838;59.938;30.642;2024-01-30T06:08:00;29.08;;;11.90;;
48925;SDS011;39838;59.938;30.642;2024-01-30T06:10:28;26.58;;;11.65;;
48925;SDS011;39838;59.938;30.642;2024-01-30T06:12:55;24.27;;;11.52;;
48925;SDS011;39838;59.938;30.642;2024-01-30T06:15:23;27.52;;;11.52;;
48925;SDS011;39838;59.938;30.642;2024-01-30T06:17:50;25.30;;;11.25;;
48925;SDS011;39838;59.938;30.642;2024-01-30T06:20:18;22.73;;;10.20;;
48925;SDS011;39838;59.938;30.642;2024-01-30T06:22:47;23.67;;;9.68;;
48925;SDS011;39838;59.938;30.642;2024-01-30T06:25:14;23.73;;;9.82;;
48925;SDS011;39838;59.938;30.642;2024-01-30T06:27:42;24.00;;;9.68;;
48925;SDS011;39838;59.938;30.642;2024-01-30T06:30:10;23.67;;;11.05;;
48925;SDS011;39838;59.938;30.642;2024-01-30T06:32:38;26.17;;;10.57;;
48925;SDS011;39838;59.938;30.642;2024-01-30T06:35:05;21.05;;;9.30;;
48925;SDS011;39838;59.938;30.642;2024-01-30T06:37:33;24.02;;;10.23;;
48925;SDS011;39838;59.938;30.642;2024-01-30T06:40:02;23.70;;;9.50;;
48925;SDS011;39838;59.938;30.642;2024-01-30T06:42:30;23.40;;;10.27;;
48925;SDS011;39838;59.938;30.642;2024-01-30T06:44:58;24.70;;;10.02;;
48925;SDS011;39838;59.938;30.642;2024-01-30T06:47:25;17.48;;;9.25;;
48925;SDS011;39838;59.938;30.642;2024-01-30T06:49:52;23.33;;;10.85;;
48925;SDS011;39838;59.938;30.642;2024-01-30T06:52:19;23.08;;;10.20;;
48925;SDS011;39838;59.938;30.642;2024-01-30T06:54:47;24.60;;;11.10;;
48925;SDS011;39838;59.938;30.642;2024-01-30T06:57:15;25.23;;;11.25;;
48925;SDS011;39838;59.938;30.642;2024-01-30T06:59:43;24.27;;;11.30;;
48925;SDS011;39838;59.938;30.642;2024-01-30T07:02:10;26.27;;;12.13;;
48925;SDS011;39838;59.938;30.642;2024-01-30T07:04:37;23.38;;;11.02;;
48925;SDS011;39838;59.938;30.642;2024-01-30T07:07:06;24.73;;;11.90;;
48925;SDS011;39838;59.938;30.642;2024-01-30T07:09:38;27.02;;;12.23;;
48925;SDS011;39838;59.938;30.642;2024-01-30T07:12:05;25.35;;;11.38;;
48925;SDS011;39838;59.938;30.642;2024-01-30T07:14:34;23.17;;;10.88;;
48925;SDS011;39838;59.938;30.642;2024-01-30T07:17:02;25.75;;;10.98;;
48925;SDS011;39838;59.938;30.642;2024-01-30T07:19:29;20.63;;;10.77;;
48925;SDS011;39838;59.938;30.642;2024-01-30T07:21:57;26.30;;;11.23;;
48925;SDS011;39838;59.938;30.642;2024-01-30T07:24:24;27.95;;;13.60;;
48925;SDS011;39838;59.938;30.642;2024-01-30T07:26:52;26.40;;;12.88;;
48925;SDS011;39838;59.938;30.642;2024-01-30T07:29:19;29.27;;;13.48;;
48925;SDS011;39838;59.938;30.642;2024-01-30T07:31:49;25.20;;;12.25;;
48925;SDS011;39838;59.938;30.642;2024-01-30T07:34:16;28.65;;;13.18;;
48925;SDS011;39838;59.938;30.642;2024-01-30T07:36:43;32.60;;;14.50;;
48925;SDS011;39838;59.938;30.642;2024-01-30T07:39:12;31.33;;;15.00;;
48925;SDS011;39838;59.938;30.642;2024-01-30T07:41:39;32.20;;;14.45;;
48925;SDS011;39838;59.938;30.642;2024-01-30T07:44:06;26.83;;;13.02;;
48925;SDS011;39838;59.938;30.642;2024-01-30T07:46:34;29.95;;;13.60;;
48925;SDS011;39838;59.938;30.642;2024-01-30T07:49:02;27.42;;;12.57;;
48925;SDS011;39838;59.938;30.642;2024-01-30T07:51:30;25.02;;;11.85;;
48925;SDS011;39838;59.938;30.642;2024-01-30T07:53:58;34.55;;;11.93;;
48925;SDS011;39838;59.938;30.642;2024-01-30T07:56:25;27.77;;;11.95;;
48925;SDS011;39838;59.938;30.642;2024-01-30T07:58:53;23.02;;;10.98;;
48925;SDS011;39838;59.938;30.642;2024-01-30T08:01:20;26.83;;;11.02;;
48925;SDS011;39838;59.938;30.642;2024-01-30T08:03:47;22.95;;;10.95;;
48925;SDS011;39838;59.938;30.642;2024-01-30T08:06:16;25.70;;;11.27;;
48925;SDS011;39838;59.938;30.642;2024-01-30T08:08:44;25.25;;;11.38;;
48925;SDS011;39838;59.938;30.642;2024-01-30T08:11:11;20.77;;;10.40;;
48925;SDS011;39838;59.938;30.642;2024-01-30T08:13:39;23.25;;;11.95;;
48925;SDS011;39838;59.938;30.642;2024-01-30T08:16:06;25.65;;;11.80;;
48925;SDS011;39838;59.938;30.642;2024-01-30T08:18:33;25.73;;;11.70;;
48925;SDS011;39838;59.938;30.642;2024-01-30T08:21:01;25.08;;;11.80;;
48925;SDS011;39838;59.938;30.642;2024-01-30T08:23:31;20.38;;;11.57;;
48925;SDS011;39838;59.938;30.642;2024-01-30T08:25:58;26.30;;;11.57;;
48925;SDS011;39838;59.938;30.642;2024-01-30T08:28:25;24.13;;;11.30;;
48925;SDS011;39838;59.938;30.642;2024-01-30T08:30:53;22.23;;;11.23;;
48925;SDS011;39838;59.938;30.642;2024-01-30T08:33:20;27.45;;;11.43;;
48925;SDS011;39838;59.938;30.642;2024-01-30T08:35:47;24.42;;;11.57;;
48925;SDS011;39838;59.938;30.642;2024-01-30T08:38:15;24.75;;;11.50;;
48925;SDS011;39838;59.938;30.642;2024-01-30T08:40:43;27.17;;;12.30;;
48925;SDS011;39838;59.938;30.642;2024-01-30T08:43:10;26.38;;;11.57;;
48925;SDS011;39838;59.938;30.642;2024-01-30T08:45:38;22.92;;;11.95;;
48925;SDS011;39838;59.938;30.642;2024-01-30T08:48:05;25.10;;;12.07;;
48925;SDS011;39838;59.938;30.642;2024-01-30T08:50:33;30.17;;;13.98;;
48925;SDS011;39838;59.938;30.642;2024-01-30T08:53:01;23.80;;;12.48;;
48925;SDS011;39838;59.938;30.642;2024-01-30T08:55:28;29.48;;;12.57;;
48925;SDS011;39838;59.938;30.642;2024-01-30T08:57:57;27.23;;;12.18;;
48925;SDS011;39838;59.938;30.642;2024-01-30T09:00:24;25.08;;;12.75;;
48925;SDS011;39838;59.938;30.642;2024-01-30T09:02:52;27.10;;;12.40;;
48925;SDS011;39838;59.938;30.642;2024-01-30T09:05:19;27.85;;;12.20;;
48925;SDS011;39838;59.938;30.642;2024-01-30T09:07:46;24.90;;;12.43;;
48925;SDS011;39838;59.938;30.642;2024-01-30T09:10:14;27.15;;;12.50;;
48925;SDS011;39838;59.938;30.642;2024-01-30T09:12:41;23.02;;;11.77;;
48925;SDS011;39838;59.938;30.642;2024-01-30T09:15:10;25.08;;;12.15;;
48925;SDS011;39838;59.938;30.642;2024-01-30T09:17:37;28.15;;;12.48;;
48925;SDS011;39838;59.938;30.642;2024-01-30T09:20:05;29.73;;;13.27;;
48925;SDS011;39838;59.938;30.642;2024-01-30T09:22:35;26.55;;;11.95;;
48925;SDS011;39838;59.938;30.642;2024-01-30T09:25:02;26.92;;;12.80;;
48925;SDS011;39838;59.938;30.642;2024-01-30T09:27:30;25.75;;;13.45;;
48925;SDS011;39838;59.938;30.642;2024-01-30T09:29:57;25.00;;;12.25;;
48925;SDS011;39838;59.938;30.642;2024-01-30T09:32:26;24.73;;;12.27;;
48925;SDS011;39838;59.938;30.642;2024-01-30T09:34:53;26.58;;;13.05;;
48925;SDS011;39838;59.938;30.642;2024-01-30T09:37:20;27.25;;;12.90;;
48925;SDS011;39838;59.938;30.642;2024-01-30T09:39:47;26.60;;;13.35;;
48925;SDS011;39838;59.938;30.642;2024-01-30T09:42:17;31.70;;;14.57;;
48925;SDS011;39838;59.938;30.642;2024-01-30T09:44:53;27.33;;;14.05;;
48925;SDS011;39838;59.938;30.642;2024-01-30T09:47:21;31.10;;;13.95;;
48925;SDS011;39838;59.938;30.642;2024-01-30T09:49:50;28.25;;;13.43;;
48925;SDS011;39838;59.938;30.642;2024-01-30T09:52:18;27.77;;;14.48;;
48925;SDS011;39838;59.938;30.642;2024-01-30T09:54:45;33.88;;;13.68;;
48925;SDS011;39838;59.938;30.642;2024-01-30T09:57:16;26.75;;;13.13;;
48925;SDS011;39838;59.938;30.642;2024-01-30T09:59:43;34.53;;;14.82;;
48925;SDS011;39838;59.938;30.642;2024-01-30T10:02:10;28.55;;;13.32;;
48925;SDS011;39838;59.938;30.642;2024-01-30T10:04:38;33.55;;;15.13;;
48925;SDS011;39838;59.938;30.642;2024-01-30T10:07:06;30.42;;;14.20;;
48925;SDS011;39838;59.938;30.642;2024-01-30T10:09:36;32.00;;;14.70;;
48925;SDS011;39838;59.938;30.642;2024-01-30T10:12:04;24.33;;;13.20;;
48925;SDS011;39838;59.938;30.642;2024-01-30T10:14:33;26.75;;;13.43;;
48925;SDS011;39838;59.938;30.642;2024-01-30T10:17:01;26.80;;;13.50;;
48925;SDS011;39838;59.938;30.642;2024-01-30T10:19:29;28.58;;;13.32;;
48925;SDS011;39838;59.938;30.642;2024-01-30T10:21:56;33.60;;;13.95;;
48925;SDS011;39838;59.938;30.642;2024-01-30T10:24:25;32.33;;;14.25;;
48925;SDS011;39838;59.938;30.642;2024-01-30T10:26:54;32.05;;;14.00;;
48925;SDS011;39838;59.938;30.642;2024-01-30T10:29:22;33.78;;;14.98;;
48925;SDS011;39838;59.938;30.642;2024-01-30T10:31:57;28.20;;;13.65;;
48925;SDS011;39838;59.938;30.642;2024-01-30T10:34:25;28.27;;;13.35;;
48925;SDS011;39838;59.938;30.642;2024-01-30T10:36:55;29.77;;;13.70;;
48925;SDS011;39838;59.938;30.642;2024-01-30T10:39:30;28.65;;;13.52;;
48925;SDS011;39838;59.938;30.642;2024-01-30T10:42:03;39.22;;;13.63;;
48925;SDS011;39838;59.938;30.642;2024-01-30T10:44:36;28.65;;;14.50;;
48925;SDS011;39838;59.938;30.642;2024-01-30T10:47:10;25.58;;;14.32;;
48925;SDS011;39838;59.938;30.642;2024-01-30T10:49:39;29.25;;;15.15;;
48925;SDS011;39838;59.938;30.642;2024-01-30T10:52:09;29.35;;;14.07;;
48925;SDS011;39838;59.938;30.642;2024-01-30T10:54:40;27.98;;;14.73;;
48925;SDS011;39838;59.938;30.642;2024-01-30T10:57:11;30.27;;;14.52;;
48925;SDS011;39838;59.938;30.642;2024-01-30T10:59:40;33.83;;;15.20;;
48925;SDS011;39838;59.938;30.642;2024-01-30T11:02:09;40.63;;;15.73;;
48925;SDS011;39838;59.938;30.642;2024-01-30T11:04:37;33.78;;;15.15;;
48925;SDS011;39838;59.938;30.642;2024-01-30T11:07:13;33.30;;;14.52;;
48925;SDS011;39838;59.938;30.642;2024-01-30T11:09:49;30.60;;;15.13;;
48925;SDS011;39838;59.938;30.642;2024-01-30T11:14:48;31.45;;;14.93;;
48925;SDS011;39838;59.938;30.642;2024-01-30T11:17:15;34.85;;;15.63;;
48925;SDS011;39838;59.938;30.642;2024-01-30T11:19:43;36.35;;;16.48;;
48925;SDS011;39838;59.938;30.642;2024-01-30T11:22:10;28.80;;;15.18;;
48925;SDS011;39838;59.938;30.642;2024-01-30T11:24:40;34.55;;;15.63;;
48925;SDS011;39838;59.938;30.642;2024-01-30T11:27:09;26.65;;;12.85;;
48925;SDS011;39838;59.938;30.642;2024-01-30T11:29:37;29.08;;;12.98;;
48925;SDS011;39838;59.938;30.642;2024-01-30T11:32:05;29.35;;;13.27;;
48925;SDS011;39838;59.938;30.642;2024-01-30T11:34:32;30.33;;;12.70;;
48925;SDS011;39838;59.938;30.642;2024-01-30T11:37:02;28.13;;;13.25;;
48925;SDS011;39838;59.938;30.642;2024-01-30T11:39:36;26.63;;;12.80;;
48925;SDS011;39838;59.938;30.642;2024-01-30T11:42:05;24.65;;;12.38;;
48925;SDS011;39838;59.938;30.642;2024-01-30T11:44:35;27.52;;;13.00;;
48925;SDS011;39838;59.938;30.642;2024-01-30T11:47:03;21.77;;;11.30;;
48925;SDS011;39838;59.938;30.642;2024-01-30T11:49:30;20.95;;;10.95;;
48925;SDS011;39838;59.938;30.642;2024-01-30T11:51:58;24.63;;;11.05;;
48925;SDS011;39838;59.938;30.642;2024-01-30T11:54:25;22.58;;;10.60;;
48925;SDS011;39838;59.938;30.642;2024-01-30T11:56:52;23.85;;;11.23;;
48925;SDS011;39838;59.938;30.642;2024-01-30T11:59:20;20.48;;;10.13;;
48925;SDS011;39838;59.938;30.642;2024-01-30T12:01:49;21.08;;;9.38;;
48925;SDS011;39838;59.938;30.642;2024-01-30T12:04:18;23.45;;;9.73;;
48925;SDS011;39838;59.938;30.642;2024-01-30T12:06:45;23.17;;;9.05;;
48925;SDS011;39838;59.938;30.642;2024-01-30T12:09:18;19.73;;;9.63;;
48925;SDS011;39838;59.938;30.642;2024-01-30T12:11:45;18.70;;;9.65;;
48925;SDS011;39838;59.938;30.642;2024-01-30T12:14:13;20.10;;;9.20;;
48925;SDS011;39838;59.938;30.642;2024-01-30T12:16:41;21.58;;;10.02;;
48925;SDS011;39838;59.938;30.642;2024-01-30T12:19:10;18.15;;;9.35;;
48925;SDS011;39838;59.938;30.642;2024-01-30T12:21:38;23.27;;;10.43;;
48925;SDS011;39838;59.938;30.642;2024-01-30T12:24:05;24.15;;;10.10;;
48925;SDS011;39838;59.938;30.642;2024-01-30T12:26:33;18.92;;;9.70;;
48925;SDS011;39838;59.938;30.642;2024-01-30T12:29:03;25.08;;;9.65;;
48925;SDS011;39838;59.938;30.642;2024-01-30T12:31:31;25.88;;;9.75;;
48925;SDS011;39838;59.938;30.642;2024-01-30T12:33:59;20.63;;;9.23;;
48925;SDS011;39838;59.938;30.642;2024-01-30T12:36:28;16.88;;;9.45;;
48925;SDS011;39838;59.938;30.642;2024-01-30T12:38:56;15.98;;;8.50;;
48925;SDS011;39838;59.938;30.642;2024-01-30T12:41:24;20.63;;;8.45;;
48925;SDS011;39838;59.938;30.642;2024-01-30T12:43:54;20.58;;;8.63;;
48925;SDS011;39838;59.938;30.642;2024-01-30T12:46:24;17.65;;;8.23;;
48925;SDS011;39838;59.938;30.642;2024-01-30T12:48:55;19.08;;;8.13;;
48925;SDS011;39838;59.938;30.642;2024-01-30T12:51:22;19.98;;;8.45;;
48925;SDS011;39838;59.938;30.642;2024-01-30T12:53:51;24.52;;;9.23;;
48925;SDS011;39838;59.938;30.642;2024-01-30T12:56:18;20.15;;;9.30;;
48925;SDS011;39838;59.938;30.642;2024-01-30T12:58:46;20.23;;;8.82;;
48925;SDS011;39838;59.938;30.642;2024-01-30T13:01:13;19.77;;;9.07;;
48925;SDS011;39838;59.938;30.642;2024-01-30T13:03:40;20.65;;;9.32;;
48925;SDS011;39838;59.938;30.642;2024-01-30T13:06:08;21.63;;;9.32;;
48925;SDS011;39838;59.938;30.642;2024-01-30T13:08:35;23.55;;;9.55;;
48925;SDS011;39838;59.938;30.642;2024-01-30T13:11:04;19.95;;;9.30;;
48925;SDS011;39838;59.938;30.642;2024-01-30T13:13:32;22.02;;;9.05;;
48925;SDS011;39838;59.938;30.642;2024-01-30T13:16:01;19.52;;;9.15;;
48925;SDS011;39838;59.938;30.642;2024-01-30T13:18:28;22.85;;;9.77;;
48925;SDS011;39838;59.938;30.642;2024-01-30T13:20:55;19.73;;;9.52;;
48925;SDS011;39838;59.938;30.642;2024-01-30T13:23:23;21.52;;;9.05;;
48925;SDS011;39838;59.938;30.642;2024-01-30T13:25:50;18.45;;;9.07;;
48925;SDS011;39838;59.938;30.642;2024-01-30T13:28:20;24.20;;;10.15;;
48925;SDS011;39838;59.938;30.642;2024-01-30T13:30:48;21.77;;;9.55;;
48925;SDS011;39838;59.938;30.642;2024-01-30T13:33:15;20.70;;;8.88;;
48925;SDS011;39838;59.938;30.642;2024-01-30T13:35:42;20.83;;;9.73;;
48925;SDS011;39838;59.938;30.642;2024-01-30T13:38:10;18.95;;;9.48;;
48925;SDS011;39838;59.938;30.642;2024-01-30T13:40:37;23.20;;;10.15;;
48925;SDS011;39838;59.938;30.642;2024-01-30T13:43:04;22.92;;;9.43;;
48925;SDS011;39838;59.938;30.642;2024-01-30T13:45:33;18.27;;;9.55;;
48925;SDS011;39838;59.938;30.642;2024-01-30T13:48:00;19.33;;;9.45;;
48925;SDS011;39838;59.938;30.642;2024-01-30T13:50:28;23.60;;;9.95;;
48925;SDS011;39838;59.938;30.642;2024-01-30T13:52:56;19.77;;;9.18;;
48925;SDS011;39838;59.938;30.642;2024-01-30T13:55:23;20.00;;;10.25;;
48925;SDS011;39838;59.938;30.642;2024-01-30T13:57:50;19.67;;;8.95;;
48925;SDS011;39838;59.938;30.642;2024-01-30T14:00:17;19.15;;;9.30;;
48925;SDS011;39838;59.938;30.642;2024-01-30T14:02:49;21.92;;;9.25;;
48925;SDS011;39838;59.938;30.642;2024-01-30T14:05:16;24.08;;;9.50;;
48925;SDS011;39838;59.938;30.642;2024-01-30T14:07:44;18.63;;;9.80;;
48925;SDS011;39838;59.938;30.642;2024-01-30T14:10:11;25.38;;;9.88;;
48925;SDS011;39838;59.938;30.642;2024-01-30T14:12:38;21.52;;;9.88;;
48925;SDS011;39838;59.938;30.642;2024-01-30T14:15:07;22.50;;;10.05;;
48925;SDS011;39838;59.938;30.642;2024-01-30T14:17:36;24.70;;;10.35;;
48925;SDS011;39838;59.938;30.642;2024-01-30T14:20:05;26.25;;;11.15;;
48925;SDS011;39838;59.938;30.642;2024-01-30T14:22:34;23.00;;;12.63;;